createdAt,value
2022-08-09T00:00:04.536Z,13.80
2022-08-09T00:02:34.374Z,13.60
2022-08-09T00:06:15.822Z,13.60
2022-08-09T00:07:52.444Z,13.60
2022-08-09T00:10:24.312Z,13.70
2022-08-09T00:12:53.380Z,13.80
2022-08-09T00:15:26.538Z,13.70
2022-08-09T00:18:05.259Z,13.80
2022-08-09T00:20:41.462Z,13.70
2022-08-09T00:23:56.288Z,13.40
2022-08-09T00:26:11.004Z,13.30
2022-08-09T00:28:39.162Z,13.20
2022-08-09T00:31:30.599Z,13.20
2022-08-09T00:33:54.829Z,13.30
2022-08-09T00:36:27.209Z,13.30
2022-08-09T00:38:58.844Z,13.50
2022-08-09T00:44:13.799Z,13.60
2022-08-09T00:44:27.751Z,13.40
2022-08-09T00:47:05.481Z,13.40
2022-08-09T00:49:36.890Z,13.40
2022-08-09T00:52:17.318Z,13.10
2022-08-09T00:54:46.023Z,13.00
2022-08-09T00:57:13.880Z,12.90
2022-08-09T00:59:52.749Z,13.00
2022-08-09T01:02:22.243Z,13.00
2022-08-09T01:05:14.329Z,12.80
2022-08-09T01:08:10.106Z,13.00
2022-08-09T01:10:45.508Z,12.70
2022-08-09T01:13:24.892Z,12.80
2022-08-09T01:15:58.582Z,12.70
2022-08-09T01:18:31.728Z,12.50
2022-08-09T01:21:09.972Z,12.50
2022-08-09T01:24:01.929Z,12.50
2022-08-09T01:26:56.841Z,12.60
2022-08-09T01:29:40.991Z,12.40
2022-08-09T01:32:37.735Z,12.10
2022-08-09T01:35:29.205Z,12.20
2022-08-09T01:38:09.598Z,12.10
2022-08-09T01:40:44.340Z,12.00
2022-08-09T01:43:12.084Z,12.10
2022-08-09T01:45:46.226Z,12.20
2022-08-09T01:48:16.140Z,12.20
2022-08-09T01:50:48.274Z,12.20
2022-08-09T01:53:19.356Z,12.40
2022-08-09T01:55:47.590Z,12.50
2022-08-09T01:58:15.427Z,12.60
2022-08-09T02:00:46.215Z,12.50
2022-08-09T02:03:17.701Z,12.20
2022-08-09T02:06:06.335Z,12.00
2022-08-09T02:08:40.276Z,12.20
2022-08-09T02:11:19.824Z,12.30
2022-08-09T02:14:06.294Z,12.10
2022-08-09T02:16:59.243Z,11.90
2022-08-09T02:19:23.558Z,11.90
2022-08-09T02:21:55.687Z,11.80
2022-08-09T02:24:29.737Z,11.70
2022-08-09T02:26:58.737Z,11.90
2022-08-09T02:29:27.680Z,11.80
2022-08-09T02:32:01.726Z,11.70
2022-08-09T02:34:41.365Z,11.70
2022-08-09T02:37:19.746Z,11.70
2022-08-09T02:40:03.138Z,11.80
2022-08-09T02:42:35.670Z,11.90
2022-08-09T02:45:08.750Z,11.70
2022-08-09T02:47:46.403Z,11.70
2022-08-09T02:50:30.143Z,11.50
2022-08-09T02:53:00.265Z,11.50
2022-08-09T02:55:46.361Z,11.20
2022-08-09T02:58:35.629Z,11.30
2022-08-09T03:01:06.412Z,11.60
2022-08-09T03:04:12.913Z,11.60
2022-08-09T03:06:27.235Z,11.30
2022-08-09T03:08:55.338Z,11.30
2022-08-09T03:11:29.927Z,11.20
2022-08-09T03:14:11.067Z,11.30
2022-08-09T03:16:44.756Z,11.40
2022-08-09T03:19:41.738Z,11.30
2022-08-09T03:22:00.471Z,11.00
2022-08-09T03:24:42.175Z,11.00
2022-08-09T03:27:21.495Z,11.10
2022-08-09T03:29:57.815Z,10.90
2022-08-09T03:32:32.203Z,11.20
2022-08-09T03:35:00.631Z,11.00
2022-08-09T03:37:55.916Z,10.90
2022-08-09T03:40:17.938Z,10.90
2022-08-09T03:42:46.771Z,11.00
2022-08-09T03:45:15.408Z,10.80
2022-08-09T03:47:46.793Z,11.00
2022-08-09T03:50:18.736Z,11.00
2022-08-09T03:53:00.208Z,10.90
2022-08-09T03:55:30.152Z,10.80
2022-08-09T03:58:09.907Z,10.70
2022-08-09T04:00:44.772Z,10.80
2022-08-09T04:03:24.684Z,10.70
2022-08-09T04:05:59.540Z,10.90
2022-08-09T04:08:29.030Z,10.90
2022-08-09T04:11:01.702Z,10.90
2022-08-09T04:13:44.883Z,10.90
2022-08-09T04:16:21.273Z,10.80
2022-08-09T04:18:51.298Z,10.80
2022-08-09T04:21:19.561Z,10.90
2022-08-09T04:23:53.904Z,10.90
2022-08-09T04:26:25.091Z,10.90
2022-08-09T04:29:09.599Z,11.00
2022-08-09T04:31:47.201Z,10.90
2022-08-09T04:34:18.794Z,11.10
2022-08-09T04:36:58.538Z,11.20
2022-08-09T04:39:26.086Z,11.10
2022-08-09T04:41:59.811Z,11.20
2022-08-09T04:44:30.122Z,11.30
2022-08-09T04:47:05.827Z,11.40
2022-08-09T04:49:52.560Z,11.30
2022-08-09T04:52:26.688Z,11.50
2022-08-09T04:54:59.707Z,11.70
2022-08-09T04:57:58.747Z,11.50
2022-08-09T05:00:16.608Z,11.70
2022-08-09T05:02:51.664Z,11.90
2022-08-09T05:05:32.171Z,12.10
2022-08-09T05:08:07.203Z,11.90
2022-08-09T05:10:36.732Z,12.00
2022-08-09T05:13:04.395Z,12.00
2022-08-09T05:15:39.138Z,12.30
2022-08-09T05:18:38.910Z,12.50
2022-08-09T05:21:03.414Z,12.60
2022-08-09T05:23:56.597Z,12.70
2022-08-09T05:26:32.168Z,12.80
2022-08-09T05:29:17.415Z,12.90
2022-08-09T05:31:56.355Z,13.20
2022-08-09T05:34:29.801Z,13.40
2022-08-09T05:37:06.462Z,13.40
2022-08-09T05:39:43.899Z,13.50
2022-08-09T05:42:17.707Z,13.60
2022-08-09T05:44:56.289Z,13.80
2022-08-09T05:47:24.677Z,14.00
2022-08-09T05:50:24.389Z,14.00
2022-08-09T05:52:43.822Z,14.10
2022-08-09T05:55:20.777Z,14.20
2022-08-09T05:57:56.046Z,14.30
2022-08-09T06:00:29.279Z,14.50
2022-08-09T06:02:58.629Z,14.70
2022-08-09T06:05:50.288Z,14.80
2022-08-09T06:08:19.813Z,15.10
2022-08-09T06:10:53.863Z,15.90
2022-08-09T06:13:21.561Z,16.80
2022-08-09T06:15:51.734Z,17.90
2022-08-09T06:18:25.098Z,18.80
2022-08-09T06:20:57.680Z,19.50
2022-08-09T06:23:57.357Z,20.20
2022-08-09T06:26:20.329Z,21.10
2022-08-09T06:29:00.445Z,21.50
2022-08-09T06:31:39.402Z,21.60
2022-08-09T06:34:22.602Z,21.90
2022-08-09T06:36:57.244Z,22.60
2022-08-09T06:39:38.688Z,23.20
2022-08-09T06:42:15.061Z,23.60
2022-08-09T06:44:42.468Z,24.00
2022-08-09T06:47:10.935Z,23.90
2022-08-09T06:50:11.983Z,24.20
2022-08-09T06:52:27.738Z,24.40
2022-08-09T06:54:55.092Z,24.40
2022-08-09T06:57:25.882Z,24.40
2022-08-09T07:00:49.910Z,24.90
2022-08-09T07:02:58.325Z,25.10
2022-08-09T07:05:58.031Z,25.50
2022-08-09T07:08:13.190Z,25.50
2022-08-09T07:10:40.606Z,25.70
2022-08-09T07:13:27.964Z,25.80
2022-08-09T07:16:41.121Z,26.00
2022-08-09T07:18:43.211Z,26.00
2022-08-09T07:21:10.816Z,26.00
2022-08-09T07:23:56.607Z,25.20
2022-08-09T07:26:26.535Z,25.40
2022-08-09T07:29:08.558Z,24.90
2022-08-09T07:31:45.204Z,24.20
2022-08-09T07:34:20.254Z,23.80
2022-08-09T07:36:49.997Z,23.80
2022-08-09T07:39:20.156Z,23.30
2022-08-09T07:42:06.492Z,23.60
2022-08-09T07:44:53.159Z,23.20
2022-08-09T07:47:21.372Z,23.40
2022-08-09T07:50:04.314Z,23.50
2022-08-09T07:52:33.718Z,23.30
2022-08-09T07:55:09.741Z,22.80
2022-08-09T07:57:46.871Z,22.70
2022-08-09T08:00:20.670Z,23.00
2022-08-09T08:03:04.855Z,23.10
2022-08-09T08:05:53.537Z,23.00
2022-08-09T08:09:02.584Z,23.00
2022-08-09T08:12:10.819Z,23.10
2022-08-09T08:13:56.773Z,23.10
2022-08-09T08:16:29.799Z,23.30
2022-08-09T08:18:59.778Z,22.80
2022-08-09T08:21:30.890Z,22.90
2022-08-09T08:24:00.892Z,22.90
2022-08-09T08:26:41.906Z,23.00
2022-08-09T08:29:20.421Z,23.30
2022-08-09T08:32:02.653Z,23.40
2022-08-09T08:34:31.831Z,23.10
2022-08-09T08:37:01.939Z,23.00
2022-08-09T08:39:39.262Z,23.10
2022-08-09T08:42:12.296Z,23.20
2022-08-09T08:44:39.820Z,23.10
2022-08-09T08:47:13.184Z,23.30
2022-08-09T08:49:48.375Z,23.30
2022-08-09T08:55:09.076Z,23.40
2022-08-09T08:57:37.543Z,23.20
2022-08-09T09:00:12.884Z,22.70
2022-08-09T09:02:52.928Z,22.70
2022-08-09T09:05:33.149Z,23.00
2022-08-09T09:08:30.686Z,23.00
2022-08-09T09:11:05.793Z,22.90
2022-08-09T09:13:48.564Z,22.70
2022-08-09T09:16:35.635Z,23.00
2022-08-09T09:19:37.256Z,23.40
2022-08-09T09:22:11.367Z,23.30
2022-08-09T09:24:43.217Z,23.30
2022-08-09T09:28:03.106Z,23.80
2022-08-09T09:30:14.312Z,23.80
2022-08-09T09:33:15.472Z,23.70
2022-08-09T09:36:01.723Z,23.90
2022-08-09T09:38:57.246Z,23.80
2022-08-09T09:41:27.893Z,23.80
2022-08-09T09:44:12.856Z,23.80
2022-08-09T09:46:45.982Z,23.90
2022-08-09T09:49:31.585Z,24.20
2022-08-09T09:52:16.477Z,24.20
2022-08-09T09:55:16.547Z,24.00
2022-08-09T09:58:16.734Z,24.00
2022-08-09T10:00:55.305Z,24.10
2022-08-09T10:03:44.861Z,23.80
2022-08-09T10:06:26.932Z,23.80
2022-08-09T10:09:00.970Z,23.90
2022-08-09T10:11:59.173Z,23.60
2022-08-09T10:14:33.186Z,23.80
2022-08-09T10:17:39.930Z,23.40
2022-08-09T10:19:59.316Z,23.90
2022-08-09T10:22:38.266Z,24.00
2022-08-09T10:25:12.084Z,23.60
2022-08-09T10:27:56.538Z,23.90
2022-08-09T10:31:54.412Z,23.90
2022-08-09T10:33:29.862Z,23.60
2022-08-09T10:36:02.467Z,24.00
2022-08-09T10:38:54.261Z,24.20
2022-08-09T10:41:20.590Z,24.30
2022-08-09T10:43:59.394Z,24.50
2022-08-09T10:46:54.225Z,24.00
2022-08-09T10:49:50.524Z,23.80
2022-08-09T10:52:37.295Z,24.20
2022-08-09T10:55:26.789Z,24.10
2022-08-09T10:57:59.879Z,24.00
2022-08-09T11:00:36.834Z,24.20
2022-08-09T11:03:27.452Z,24.20
2022-08-09T11:06:22.987Z,24.20
2022-08-09T11:08:51.287Z,24.30
2022-08-09T11:11:21.472Z,24.60
2022-08-09T11:14:09.647Z,24.50
2022-08-09T11:16:43.839Z,24.50
2022-08-09T11:19:14.612Z,24.50
2022-08-09T11:22:16.596Z,24.50
2022-08-09T11:25:08.166Z,24.80
2022-08-09T11:28:08.050Z,24.90
2022-08-09T11:30:32.669Z,25.20
2022-08-09T11:33:03.701Z,25.40
2022-08-09T11:35:49.405Z,25.20
2022-08-09T11:38:32.384Z,25.00
2022-08-09T11:41:16.825Z,25.30
2022-08-09T11:43:49.239Z,25.50
2022-08-09T11:46:26.684Z,25.60
2022-08-09T11:49:05.320Z,25.80
2022-08-09T11:53:21.005Z,25.60
2022-08-09T11:55:35.025Z,25.20
2022-08-09T11:58:17.446Z,24.90
2022-08-09T12:00:56.674Z,24.70
2022-08-09T12:03:55.404Z,25.10
2022-08-09T12:06:15.062Z,25.60
2022-08-09T12:08:53.484Z,25.60
2022-08-09T12:11:22.634Z,25.20
2022-08-09T12:14:09.318Z,24.90
2022-08-09T12:16:43.443Z,24.90
2022-08-09T12:19:13.270Z,25.00
2022-08-09T12:21:50.622Z,24.80
2022-08-09T12:24:25.292Z,25.30
2022-08-09T12:29:14.241Z,25.40
2022-08-09T12:29:58.678Z,25.30
2022-08-09T12:32:32.342Z,25.50
2022-08-09T12:35:03.166Z,25.60
2022-08-09T12:37:50.141Z,25.80
2022-08-09T12:40:20.586Z,25.70
2022-08-09T12:42:50.690Z,25.90
2022-08-09T12:45:34.471Z,25.70
2022-08-09T12:48:20.137Z,25.30
2022-08-09T12:50:57.872Z,25.40
2022-08-09T12:53:38.866Z,25.50
2022-08-09T12:56:36.863Z,25.50
2022-08-09T12:59:15.689Z,25.30
2022-08-09T13:01:49.864Z,25.20
2022-08-09T13:04:36.122Z,24.90
2022-08-09T13:07:19.873Z,24.60
2022-08-09T13:09:55.110Z,24.60
2022-08-09T13:12:28.291Z,24.90
2022-08-09T13:15:08.901Z,25.10
2022-08-09T13:18:03.264Z,25.10
2022-08-09T13:20:37.384Z,24.90
2022-08-09T13:24:16.560Z,25.30
2022-08-09T13:25:55.841Z,25.30
2022-08-09T13:28:34.588Z,25.60
2022-08-09T13:32:13.483Z,25.80
2022-08-09T13:33:54.700Z,25.90
2022-08-09T13:36:42.586Z,25.60
2022-08-09T13:41:50.485Z,25.60
2022-08-09T13:42:02.734Z,25.50
2022-08-09T13:44:30.642Z,25.00
2022-08-09T13:47:27.766Z,25.20
2022-08-09T13:49:56.255Z,25.20
2022-08-09T13:52:25.020Z,25.20
2022-08-09T13:54:59.274Z,24.90
2022-08-09T13:57:37.180Z,24.70
2022-08-09T14:00:18.867Z,24.60
2022-08-09T14:03:04.412Z,24.30
2022-08-09T14:05:59.816Z,24.30
2022-08-09T14:08:27.070Z,24.40
2022-08-09T14:10:55.720Z,24.60
2022-08-09T14:13:27.997Z,24.60
2022-08-09T14:16:14.709Z,24.60
2022-08-09T14:18:45.981Z,24.70
2022-08-09T14:21:20.831Z,24.80
2022-08-09T14:23:55.413Z,24.80
2022-08-09T14:26:32.624Z,25.10
2022-08-09T14:30:04.197Z,25.20
2022-08-09T14:32:13.080Z,24.90
2022-08-09T14:34:43.720Z,24.80
2022-08-09T14:37:12.271Z,24.70
2022-08-09T14:39:47.832Z,24.50
2022-08-09T14:42:39.462Z,24.50
2022-08-09T14:46:39.883Z,24.40
2022-08-09T14:48:00.060Z,24.40
2022-08-09T14:50:31.709Z,24.30
2022-08-09T14:53:12.088Z,24.10
2022-08-09T14:55:42.105Z,24.40
2022-08-09T14:58:10.013Z,24.40
2022-08-09T15:00:37.615Z,24.50
2022-08-09T15:03:10.627Z,24.50
2022-08-09T15:05:38.388Z,24.40
2022-08-09T15:08:06.351Z,24.60
2022-08-09T15:10:38.147Z,24.60
2022-08-09T15:13:08.788Z,24.20
2022-08-09T15:15:39.445Z,24.10
2022-08-09T15:18:08.261Z,24.10
2022-08-09T15:21:57.000Z,24.20
2022-08-09T15:24:03.764Z,24.20
2022-08-09T15:26:19.196Z,24.20
2022-08-09T15:29:04.017Z,24.40
2022-08-09T15:31:41.771Z,24.40
2022-08-09T15:34:32.503Z,24.40
2022-08-09T15:36:58.301Z,24.50
2022-08-09T15:39:34.699Z,24.50
2022-08-09T15:42:11.590Z,24.50
2022-08-09T15:44:38.972Z,24.40
2022-08-09T15:47:06.585Z,24.30
2022-08-09T15:50:00.368Z,24.20
2022-08-09T15:52:29.519Z,23.80
2022-08-09T15:54:58.223Z,23.80
2022-08-09T15:57:35.887Z,23.80
2022-08-09T16:00:17.033Z,23.80
2022-08-09T16:02:53.930Z,23.60
2022-08-09T16:05:22.388Z,23.30
2022-08-09T16:07:50.568Z,23.10
2022-08-09T16:10:55.456Z,22.80
2022-08-09T16:13:18.632Z,22.60
2022-08-09T16:16:10.495Z,22.50
2022-08-09T16:18:44.781Z,22.50
2022-08-09T16:21:17.405Z,22.70
2022-08-09T16:23:55.590Z,22.80
2022-08-09T16:26:35.683Z,22.70
2022-08-09T16:29:11.406Z,22.80
2022-08-09T16:32:18.882Z,23.00
2022-08-09T16:34:55.302Z,23.10
2022-08-09T16:37:53.045Z,23.30
2022-08-09T16:40:12.177Z,23.40
2022-08-09T16:42:45.074Z,23.50
2022-08-09T16:45:14.531Z,23.40
2022-08-09T16:48:39.645Z,23.30
2022-08-09T16:50:34.291Z,23.10
2022-08-09T16:53:02.702Z,23.10
2022-08-09T16:55:58.638Z,23.10
2022-08-09T16:58:21.104Z,23.10
2022-08-09T17:00:49.202Z,23.00
2022-08-09T17:03:22.031Z,22.90
2022-08-09T17:06:03.450Z,23.00
2022-08-09T17:08:43.458Z,22.90
2022-08-09T17:11:40.676Z,22.90
2022-08-09T17:14:26.457Z,22.80
2022-08-09T17:17:01.302Z,22.70
2022-08-09T17:19:46.410Z,22.60
2022-08-09T17:22:15.510Z,22.60
2022-08-09T17:24:47.738Z,22.60
2022-08-09T17:27:22.865Z,22.40
2022-08-09T17:29:51.679Z,22.30
2022-08-09T17:32:20.264Z,22.30
2022-08-09T17:35:04.191Z,22.20
2022-08-09T17:38:02.116Z,22.10
2022-08-09T17:40:27.534Z,22.10
2022-08-09T17:42:59.206Z,22.10
2022-08-09T17:46:01.508Z,22.10
2022-08-09T17:48:16.296Z,22.00
2022-08-09T17:50:55.881Z,22.00
2022-08-09T17:53:26.925Z,22.00
2022-08-09T17:56:00.966Z,21.90
2022-08-09T17:58:31.114Z,21.80
2022-08-09T18:00:59.767Z,21.80
2022-08-09T18:03:30.350Z,21.80
2022-08-09T18:06:00.878Z,21.60
2022-08-09T18:08:28.554Z,21.60
2022-08-09T18:11:01.668Z,21.60
2022-08-09T18:13:43.682Z,21.40
2022-08-09T18:16:30.518Z,21.30
2022-08-09T18:19:03.652Z,21.10
2022-08-09T18:21:50.329Z,20.90
2022-08-09T18:24:19.944Z,20.90
2022-08-09T18:26:48.089Z,20.80
2022-08-09T18:30:40.545Z,20.70
2022-08-09T18:32:05.339Z,20.50
2022-08-09T18:34:35.733Z,20.30
2022-08-09T18:37:10.391Z,20.30
2022-08-09T18:39:57.663Z,20.20
2022-08-09T18:42:29.317Z,20.10
2022-08-09T18:44:57.267Z,19.90
2022-08-09T18:47:37.364Z,19.80
2022-08-09T18:50:09.952Z,19.70
2022-08-09T18:52:39.163Z,19.70
2022-08-09T18:55:13.646Z,19.50
2022-08-09T18:57:44.570Z,19.20
2022-08-09T19:00:16.735Z,19.20
2022-08-09T19:02:50.994Z,19.00
2022-08-09T19:05:48.852Z,19.00
2022-08-09T19:08:14.043Z,18.90
2022-08-09T19:10:47.160Z,19.00
2022-08-09T19:13:16.669Z,18.90
2022-08-09T19:15:49.293Z,18.90
2022-08-09T19:18:35.681Z,18.80
2022-08-09T19:21:09.117Z,18.80
2022-08-09T19:24:31.684Z,18.90
2022-08-09T19:26:31.504Z,18.80
2022-08-09T19:29:03.052Z,18.70
2022-08-09T19:31:45.752Z,18.60
2022-08-09T19:34:21.798Z,18.60
2022-08-09T19:36:54.772Z,18.40
2022-08-09T19:39:42.992Z,18.40
2022-08-09T19:42:09.573Z,18.40
2022-08-09T19:44:43.077Z,18.20
2022-08-09T19:47:11.144Z,18.30
2022-08-09T19:50:06.632Z,18.10
2022-08-09T19:52:28.017Z,18.00
2022-08-09T19:54:55.950Z,18.10
2022-08-09T19:57:26.339Z,17.80
2022-08-09T20:00:02.407Z,17.90
2022-08-09T20:04:12.370Z,17.90
2022-08-09T20:05:23.584Z,17.90
2022-08-09T20:07:59.500Z,17.60
2022-08-09T20:10:36.303Z,17.50
2022-08-09T20:13:05.975Z,17.50
2022-08-09T20:16:37.681Z,17.40
2022-08-09T20:18:22.382Z,17.20
2022-08-09T20:20:55.091Z,16.80
2022-08-09T20:23:23.810Z,16.90
2022-08-09T20:25:53.618Z,17.10
2022-08-09T20:28:34.311Z,17.20
2022-08-09T20:31:15.348Z,17.00
2022-08-09T20:33:44.024Z,17.00
2022-08-09T20:36:12.879Z,17.10
2022-08-09T20:41:35.019Z,17.20
2022-08-09T20:44:10.183Z,17.30
2022-08-09T20:46:43.101Z,17.20
2022-08-09T20:49:14.017Z,17.00
2022-08-09T20:51:44.618Z,16.80
2022-08-09T20:54:18.219Z,16.60
2022-08-09T20:56:49.357Z,16.40
2022-08-09T20:59:17.781Z,16.50
2022-08-09T21:02:05.054Z,16.50
2022-08-09T21:05:52.881Z,16.50
2022-08-09T21:07:20.016Z,16.40
2022-08-09T21:09:56.808Z,16.40
2022-08-09T21:15:23.564Z,16.40
2022-08-09T21:18:23.093Z,16.00
2022-08-09T21:20:42.505Z,16.00
2022-08-09T21:23:13.550Z,15.90
2022-08-09T21:25:59.242Z,15.70
2022-08-09T21:28:34.811Z,15.60
2022-08-09T21:31:17.580Z,15.80
2022-08-09T21:33:52.712Z,16.00
2022-08-09T21:36:23.176Z,15.90
2022-08-09T21:38:57.906Z,15.90
2022-08-09T21:42:04.632Z,15.70
2022-08-09T21:44:33.000Z,15.90
2022-08-09T21:47:07.915Z,15.70
2022-08-09T21:49:42.657Z,15.90
2022-08-09T21:52:15.115Z,16.00
2022-08-09T21:54:59.505Z,15.90
2022-08-09T21:57:39.311Z,16.10
2022-08-09T22:00:33.876Z,16.00
2022-08-09T22:03:04.725Z,16.10
2022-08-09T22:05:35.894Z,16.20
2022-08-09T22:08:13.587Z,16.10
2022-08-09T22:11:48.809Z,15.90
2022-08-09T22:13:35.646Z,15.70
2022-08-09T22:16:07.221Z,15.90
2022-08-09T22:18:37.227Z,15.80
2022-08-09T22:21:09.688Z,15.80
2022-08-09T22:23:59.375Z,15.70
2022-08-09T22:26:34.762Z,15.70
2022-08-09T22:29:06.787Z,15.50
2022-08-09T22:31:36.473Z,15.30
2022-08-09T22:34:09.831Z,15.20
2022-08-09T22:36:46.027Z,14.90
2022-08-09T22:39:47.318Z,15.10
2022-08-09T22:42:16.306Z,15.20
2022-08-09T22:44:59.882Z,15.30
2022-08-09T22:48:15.791Z,15.10
2022-08-09T22:50:17.399Z,14.90
2022-08-09T22:52:45.188Z,14.90
2022-08-09T22:55:22.590Z,14.80
2022-08-09T22:58:00.022Z,14.80
2022-08-09T23:00:29.600Z,14.90
2022-08-09T23:02:57.319Z,14.90
2022-08-09T23:05:26.028Z,15.00
2022-08-09T23:08:22.665Z,14.80
2022-08-09T23:10:56.711Z,14.60
2022-08-09T23:13:24.277Z,14.80
2022-08-09T23:16:02.246Z,14.70
2022-08-09T23:18:31.774Z,14.80
2022-08-09T23:20:59.088Z,14.90
2022-08-09T23:23:26.434Z,14.70
2022-08-09T23:25:53.678Z,14.50
2022-08-09T23:28:20.999Z,14.40
2022-08-09T23:30:51.263Z,14.30
2022-08-09T23:33:20.790Z,14.20
2022-08-09T23:36:04.457Z,13.90
2022-08-09T23:38:34.615Z,14.00
2022-08-09T23:41:02.322Z,14.10
2022-08-09T23:43:29.895Z,14.10
2022-08-09T23:45:57.233Z,14.00
2022-08-09T23:48:24.692Z,13.90
2022-08-09T23:50:52.232Z,13.80
2022-08-09T23:53:19.898Z,13.90
2022-08-09T23:55:54.464Z,13.90
2022-08-09T23:58:24.225Z,13.90
